createdAt,value
2022-10-05T00:00:03.879Z,7.80
2022-10-05T00:01:30.186Z,8.00
2022-10-05T00:02:32.300Z,7.30
2022-10-05T00:03:36.456Z,6.30
2022-10-05T00:04:38.304Z,7.50
2022-10-05T00:05:40.108Z,8.10
2022-10-05T00:07:08.430Z,8.20
2022-10-05T00:08:10.177Z,6.50
2022-10-05T00:09:16.635Z,9.50
2022-10-05T00:10:18.817Z,7.60
2022-10-05T00:11:20.656Z,6.90
2022-10-05T00:12:23.551Z,8.40
2022-10-05T00:13:29.131Z,9.60
2022-10-05T00:14:34.386Z,9.10
2022-10-05T00:15:36.028Z,8.20
2022-10-05T00:16:37.662Z,8.20
2022-10-05T00:17:41.272Z,6.90
2022-10-05T00:18:48.059Z,9.00
2022-10-05T00:19:53.465Z,6.70
2022-10-05T00:20:56.337Z,9.70
2022-10-05T00:22:33.112Z,6.80
2022-10-05T00:23:34.791Z,6.60
2022-10-05T00:24:36.527Z,9.50
2022-10-05T00:25:38.379Z,6.60
2022-10-05T00:26:39.929Z,9.00
2022-10-05T00:27:41.961Z,6.50
2022-10-05T00:28:43.737Z,6.80
2022-10-05T00:29:46.569Z,7.30
2022-10-05T00:30:48.284Z,5.80
2022-10-05T00:31:50.258Z,8.40
2022-10-05T00:32:56.109Z,7.00
2022-10-05T00:34:01.261Z,7.70
2022-10-05T00:35:03.248Z,8.50
2022-10-05T00:36:07.119Z,8.50
2022-10-05T00:37:09.193Z,7.60
2022-10-05T00:38:10.923Z,8.10
2022-10-05T00:39:13.334Z,9.70
2022-10-05T00:40:25.813Z,9.30
2022-10-05T00:41:52.861Z,7.00
2022-10-05T00:43:03.111Z,11.30
2022-10-05T00:44:15.258Z,7.90
2022-10-05T00:45:37.025Z,8.50
2022-10-05T00:47:31.019Z,8.70
2022-10-05T00:48:45.379Z,6.30
2022-10-05T00:50:08.113Z,12.30
2022-10-05T00:51:27.618Z,10.00
2022-10-05T00:52:46.060Z,8.30
2022-10-05T00:54:14.717Z,9.00
2022-10-05T00:55:45.696Z,9.10
2022-10-05T00:56:53.525Z,9.50
2022-10-05T00:58:25.734Z,8.50
2022-10-05T00:59:36.301Z,15.80
2022-10-05T01:02:23.874Z,12.00
2022-10-05T01:03:37.831Z,10.20
2022-10-05T01:04:59.444Z,9.40
2022-10-05T01:06:09.657Z,8.60
2022-10-05T01:07:35.246Z,8.90
2022-10-05T01:08:51.826Z,11.80
2022-10-05T01:10:17.768Z,11.20
2022-10-05T01:11:46.857Z,9.50
2022-10-05T01:12:55.289Z,10.80
2022-10-05T01:14:15.582Z,9.20
2022-10-05T01:15:30.853Z,9.50
2022-10-05T01:17:04.351Z,13.90
2022-10-05T01:18:26.409Z,9.00
2022-10-05T01:19:59.826Z,13.10
2022-10-05T01:21:13.385Z,7.70
2022-10-05T01:22:36.585Z,9.50
2022-10-05T01:23:41.192Z,9.20
2022-10-05T01:25:04.291Z,10.20
2022-10-05T01:26:45.569Z,8.10
2022-10-05T01:28:16.174Z,9.10
2022-10-05T01:29:23.658Z,11.40
2022-10-05T01:31:20.544Z,9.60
2022-10-05T01:32:49.293Z,9.60
2022-10-05T01:34:04.236Z,9.90
2022-10-05T01:35:28.145Z,8.70
2022-10-05T01:37:07.016Z,9.70
2022-10-05T01:38:39.312Z,10.30
2022-10-05T01:40:19.894Z,10.60
2022-10-05T01:41:40.505Z,8.40
2022-10-05T01:43:57.389Z,12.90
2022-10-05T01:45:14.193Z,11.70
2022-10-05T01:46:29.835Z,7.60
2022-10-05T01:48:03.550Z,7.90
2022-10-05T01:49:42.464Z,9.40
2022-10-05T01:51:16.206Z,10.80
2022-10-05T01:52:38.856Z,9.40
2022-10-05T01:53:40.770Z,10.20
2022-10-05T01:54:48.484Z,8.40
2022-10-05T01:55:56.259Z,10.30
2022-10-05T01:57:03.496Z,8.80
2022-10-05T01:58:17.163Z,8.30
2022-10-05T01:59:51.949Z,9.50
2022-10-05T02:01:04.217Z,11.70
2022-10-05T02:02:17.609Z,11.90
2022-10-05T02:03:27.166Z,11.60
2022-10-05T02:06:15.055Z,9.40
2022-10-05T02:07:32.042Z,8.80
2022-10-05T02:08:45.814Z,10.20
2022-10-05T02:09:53.481Z,9.40
2022-10-05T02:11:03.005Z,12.70
2022-10-05T02:12:15.411Z,9.80
2022-10-05T02:13:24.841Z,10.90
2022-10-05T02:14:32.639Z,12.80
2022-10-05T02:15:45.667Z,9.20
2022-10-05T02:16:50.763Z,8.70
2022-10-05T02:17:58.926Z,13.80
2022-10-05T02:19:41.621Z,13.30
2022-10-05T02:20:46.582Z,8.70
2022-10-05T02:22:03.967Z,7.70
2022-10-05T02:23:21.668Z,11.40
2022-10-05T02:24:29.114Z,9.60
2022-10-05T02:25:34.467Z,9.50
2022-10-05T02:26:38.657Z,7.80
2022-10-05T02:28:03.808Z,10.60
2022-10-05T02:29:10.942Z,8.80
2022-10-05T02:30:16.565Z,7.20
2022-10-05T02:31:34.759Z,10.10
2022-10-05T02:33:02.033Z,8.70
2022-10-05T02:34:28.549Z,9.60
2022-10-05T02:35:38.730Z,9.40
2022-10-05T02:36:40.471Z,8.20
2022-10-05T02:37:56.628Z,7.00
2022-10-05T02:39:06.539Z,11.50
2022-10-05T02:40:27.023Z,13.40
2022-10-05T02:43:19.739Z,9.60
2022-10-05T02:44:49.767Z,9.60
2022-10-05T02:46:06.376Z,8.70
2022-10-05T02:47:32.940Z,9.10
2022-10-05T02:48:43.498Z,9.50
2022-10-05T02:50:03.184Z,9.60
2022-10-05T02:51:15.733Z,9.00
2022-10-05T02:52:25.451Z,9.60
2022-10-05T02:53:33.620Z,10.60
2022-10-05T02:55:15.180Z,10.20
2022-10-05T02:56:32.874Z,8.20
2022-10-05T02:57:42.021Z,9.80
2022-10-05T02:58:51.840Z,9.00
2022-10-05T03:00:08.793Z,9.30
2022-10-05T03:01:23.155Z,7.90
2022-10-05T03:02:56.008Z,8.50
2022-10-05T03:04:24.017Z,9.00
2022-10-05T03:05:31.577Z,13.10
2022-10-05T03:06:41.607Z,9.40
2022-10-05T03:07:55.870Z,11.80
2022-10-05T03:09:05.195Z,10.90
2022-10-05T03:10:34.342Z,6.60
2022-10-05T03:11:54.859Z,11.00
2022-10-05T03:13:16.045Z,8.80
2022-10-05T03:14:37.287Z,10.00
2022-10-05T03:16:20.204Z,8.40
2022-10-05T03:17:28.049Z,10.50
2022-10-05T03:18:35.708Z,9.40
2022-10-05T03:20:08.075Z,12.10
2022-10-05T03:21:12.872Z,9.60
2022-10-05T03:22:32.812Z,7.40
2022-10-05T03:24:07.342Z,11.40
2022-10-05T03:25:27.373Z,7.80
2022-10-05T03:26:49.458Z,7.10
2022-10-05T03:29:14.246Z,10.00
2022-10-05T03:30:22.704Z,9.20
2022-10-05T03:31:41.698Z,6.50
2022-10-05T03:32:52.584Z,11.70
2022-10-05T03:34:05.679Z,13.20
2022-10-05T03:35:13.181Z,13.20
2022-10-05T03:36:17.785Z,14.30
2022-10-05T03:37:33.200Z,14.20
2022-10-05T03:38:56.703Z,11.80
2022-10-05T03:40:19.779Z,13.80
2022-10-05T03:41:54.206Z,13.30
2022-10-05T03:43:24.587Z,12.50
2022-10-05T03:44:32.298Z,16.30
2022-10-05T03:45:55.923Z,14.50
2022-10-05T03:46:57.515Z,12.30
2022-10-05T03:48:27.936Z,13.90
2022-10-05T03:49:32.714Z,14.80
2022-10-05T03:51:14.579Z,14.30
2022-10-05T03:52:28.295Z,13.30
2022-10-05T03:53:37.895Z,12.00
2022-10-05T03:55:11.420Z,11.60
2022-10-05T03:56:25.122Z,14.30
2022-10-05T03:57:31.273Z,10.30
2022-10-05T03:58:41.202Z,11.60
2022-10-05T04:00:02.159Z,11.00
2022-10-05T04:01:21.699Z,11.60
2022-10-05T04:02:28.852Z,12.70
2022-10-05T04:03:43.979Z,13.50
2022-10-05T04:04:59.735Z,13.00
2022-10-05T04:06:10.582Z,11.80
2022-10-05T04:07:25.150Z,14.20
2022-10-05T04:08:45.386Z,11.20
2022-10-05T04:09:52.483Z,11.30
2022-10-05T04:10:57.298Z,15.20
2022-10-05T04:12:23.085Z,10.30
2022-10-05T04:13:39.612Z,11.70
2022-10-05T04:14:46.576Z,12.10
2022-10-05T04:16:05.426Z,10.90
2022-10-05T04:17:17.508Z,10.30
2022-10-05T04:18:33.759Z,11.50
2022-10-05T04:19:49.842Z,10.20
2022-10-05T04:20:57.740Z,9.90
2022-10-05T04:22:15.011Z,11.00
2022-10-05T04:23:28.596Z,12.40
2022-10-05T04:24:53.503Z,10.80
2022-10-05T04:26:04.221Z,7.60
2022-10-05T04:27:23.811Z,8.70
2022-10-05T04:28:37.855Z,11.20
2022-10-05T04:29:47.640Z,9.50
2022-10-05T04:30:52.504Z,8.60
2022-10-05T04:32:21.118Z,11.40
2022-10-05T04:33:23.091Z,13.00
2022-10-05T04:34:46.466Z,8.20
2022-10-05T04:36:16.040Z,7.40
2022-10-05T04:37:28.124Z,7.80
2022-10-05T04:38:35.543Z,8.40
2022-10-05T04:40:03.096Z,9.00
2022-10-05T04:41:38.598Z,7.10
2022-10-05T04:43:12.645Z,9.30
2022-10-05T04:44:38.418Z,7.80
2022-10-05T04:45:56.071Z,10.00
2022-10-05T04:47:18.300Z,7.10
2022-10-05T04:48:53.818Z,7.90
2022-10-05T04:49:56.286Z,11.90
2022-10-05T04:50:58.169Z,6.90
2022-10-05T04:52:18.640Z,7.80
2022-10-05T04:53:35.330Z,9.30
2022-10-05T04:54:46.062Z,8.50
2022-10-05T04:55:54.009Z,8.40
2022-10-05T04:57:03.019Z,7.50
2022-10-05T04:58:40.056Z,7.80
2022-10-05T05:00:09.040Z,8.90
2022-10-05T05:01:37.510Z,7.80
2022-10-05T05:02:46.845Z,11.30
2022-10-05T05:03:55.297Z,5.20
2022-10-05T05:05:18.822Z,9.40
2022-10-05T05:06:41.707Z,9.30
2022-10-05T05:08:05.071Z,7.80
2022-10-05T05:09:34.571Z,7.90
2022-10-05T05:11:15.040Z,5.70
2022-10-05T05:14:29.178Z,8.60
2022-10-05T05:15:43.560Z,8.90
2022-10-05T05:16:55.085Z,7.40
2022-10-05T05:17:56.784Z,5.80
2022-10-05T05:19:10.550Z,6.40
2022-10-05T05:20:32.931Z,8.40
2022-10-05T05:22:03.721Z,7.30
2022-10-05T05:23:06.949Z,7.00
2022-10-05T05:24:44.589Z,6.80
2022-10-05T05:26:09.159Z,7.80
2022-10-05T05:27:24.025Z,9.20
2022-10-05T05:28:34.479Z,7.10
2022-10-05T05:30:06.464Z,8.90
2022-10-05T05:31:19.250Z,6.60
2022-10-05T05:33:05.890Z,11.80
2022-10-05T05:34:48.427Z,10.40
2022-10-05T05:36:23.408Z,6.30
2022-10-05T05:38:02.000Z,9.30
2022-10-05T05:39:12.945Z,8.70
2022-10-05T05:40:19.100Z,8.70
2022-10-05T05:41:30.069Z,8.40
2022-10-05T05:42:47.829Z,8.20
2022-10-05T05:44:19.884Z,6.40
2022-10-05T05:45:41.180Z,8.90
2022-10-05T05:47:03.378Z,9.90
2022-10-05T05:48:21.032Z,6.00
2022-10-05T05:50:05.578Z,8.00
2022-10-05T05:51:22.284Z,9.70
2022-10-05T05:52:30.043Z,8.80
2022-10-05T05:53:45.276Z,9.30
2022-10-05T05:55:29.054Z,8.30
2022-10-05T05:56:37.595Z,8.10
2022-10-05T05:58:18.654Z,8.00
2022-10-05T05:59:45.082Z,8.40
2022-10-05T06:00:54.469Z,6.10
2022-10-05T06:02:07.724Z,7.50
2022-10-05T06:03:22.092Z,8.80
2022-10-05T06:04:56.371Z,8.50
2022-10-05T06:06:03.135Z,6.10
2022-10-05T06:07:05.976Z,11.40
2022-10-05T06:08:22.981Z,9.10
2022-10-05T06:09:30.488Z,8.00
2022-10-05T06:10:56.900Z,8.20
2022-10-05T06:12:08.067Z,7.00
2022-10-05T06:13:19.940Z,7.70
2022-10-05T06:14:31.835Z,5.70
2022-10-05T06:15:43.244Z,6.10
2022-10-05T06:17:09.091Z,10.40
2022-10-05T06:18:14.828Z,6.40
2022-10-05T06:19:20.703Z,7.50
2022-10-05T06:20:51.176Z,6.90
2022-10-05T06:22:02.060Z,6.70
2022-10-05T06:23:11.710Z,7.70
2022-10-05T06:24:20.395Z,7.90
2022-10-05T06:25:43.891Z,9.30
2022-10-05T06:26:57.713Z,9.70
2022-10-05T06:28:10.568Z,7.50
2022-10-05T06:29:23.810Z,5.80
2022-10-05T06:30:39.553Z,6.90
2022-10-05T06:32:02.146Z,10.20
2022-10-05T06:33:20.705Z,8.00
2022-10-05T06:34:43.834Z,8.20
2022-10-05T06:36:32.629Z,8.60
2022-10-05T06:38:00.403Z,8.10
2022-10-05T06:39:25.153Z,10.70
2022-10-05T06:40:42.866Z,8.30
2022-10-05T06:42:05.710Z,9.50
2022-10-05T06:45:11.114Z,8.30
2022-10-05T06:46:42.118Z,7.10
2022-10-05T06:48:35.077Z,7.30
2022-10-05T06:50:01.308Z,6.80
2022-10-05T06:51:39.992Z,5.90
2022-10-05T06:53:07.927Z,9.60
2022-10-05T06:55:32.024Z,8.80
2022-10-05T06:56:52.726Z,9.00
2022-10-05T06:58:25.770Z,8.00
2022-10-05T06:59:43.779Z,6.90
2022-10-05T07:00:53.582Z,8.10
2022-10-05T07:03:10.115Z,10.40
2022-10-05T07:04:24.019Z,8.00
2022-10-05T07:05:50.371Z,8.30
2022-10-05T07:06:57.237Z,7.90
2022-10-05T07:08:07.604Z,8.00
2022-10-05T07:09:24.595Z,7.80
2022-10-05T07:10:52.635Z,9.00
2022-10-05T07:12:23.067Z,7.00
2022-10-05T07:13:55.781Z,9.90
2022-10-05T07:14:57.509Z,7.40
2022-10-05T07:16:22.707Z,8.90
2022-10-05T07:17:36.733Z,8.30
2022-10-05T07:19:16.500Z,8.30
2022-10-05T07:20:50.125Z,10.40
2022-10-05T07:22:24.986Z,9.30
2022-10-05T07:23:48.571Z,10.10
2022-10-05T07:25:18.966Z,7.80
2022-10-05T07:26:30.435Z,8.10
2022-10-05T07:27:41.808Z,7.80
2022-10-05T07:29:12.162Z,10.30
2022-10-05T07:30:15.465Z,11.30
2022-10-05T07:31:23.874Z,7.00
2022-10-05T07:32:54.872Z,7.90
2022-10-05T07:34:22.597Z,9.20
2022-10-05T07:36:05.510Z,7.80
2022-10-05T07:37:32.217Z,9.50
2022-10-05T07:38:53.708Z,8.90
2022-10-05T07:40:18.951Z,8.40
2022-10-05T07:41:53.475Z,10.30
2022-10-05T07:43:05.528Z,6.80
2022-10-05T07:44:27.267Z,7.40
2022-10-05T07:46:00.970Z,5.90
2022-10-05T07:47:25.562Z,7.00
2022-10-05T07:48:44.550Z,12.30
2022-10-05T07:50:13.659Z,6.80
2022-10-05T07:51:27.656Z,8.00
2022-10-05T07:52:51.891Z,7.70
2022-10-05T07:54:13.000Z,8.30
2022-10-05T07:55:21.376Z,9.10
2022-10-05T07:56:37.793Z,9.20
2022-10-05T07:57:56.534Z,6.50
2022-10-05T07:59:07.181Z,7.60
2022-10-05T08:00:47.793Z,7.70
2022-10-05T08:01:58.684Z,10.10
2022-10-05T08:03:10.844Z,7.60
2022-10-05T08:04:23.943Z,8.40
2022-10-05T08:05:27.803Z,9.30
2022-10-05T08:06:40.209Z,10.50
2022-10-05T08:07:42.534Z,9.30
2022-10-05T08:08:56.817Z,8.10
2022-10-05T08:09:58.698Z,9.20
2022-10-05T08:11:12.079Z,7.90
2022-10-05T08:12:23.485Z,8.70
2022-10-05T08:13:38.840Z,10.20
2022-10-05T08:14:52.299Z,9.30
2022-10-05T08:16:00.050Z,8.20
2022-10-05T08:17:10.799Z,7.10
2022-10-05T08:18:23.993Z,7.50
2022-10-05T08:19:34.155Z,9.50
2022-10-05T08:20:51.399Z,8.60
2022-10-05T08:22:05.607Z,8.10
2022-10-05T08:23:25.046Z,6.10
2022-10-05T08:24:29.614Z,7.80
2022-10-05T08:25:44.776Z,11.90
2022-10-05T08:26:51.024Z,11.80
2022-10-05T08:28:04.301Z,6.80
2022-10-05T08:29:27.061Z,7.80
2022-10-05T08:30:34.972Z,10.00
2022-10-05T08:31:39.567Z,7.50
2022-10-05T08:33:15.221Z,7.50
2022-10-05T08:34:34.045Z,8.80
2022-10-05T08:35:43.355Z,7.70
2022-10-05T08:36:58.051Z,8.40
2022-10-05T08:38:16.132Z,8.10
2022-10-05T08:39:20.770Z,10.30
2022-10-05T08:40:41.548Z,9.10
2022-10-05T08:42:01.111Z,11.00
2022-10-05T08:43:21.393Z,8.10
2022-10-05T08:44:37.295Z,8.70
2022-10-05T08:46:21.333Z,8.60
2022-10-05T08:47:36.612Z,6.40
2022-10-05T08:49:03.862Z,8.80
2022-10-05T08:51:01.318Z,10.10
2022-10-05T08:52:28.583Z,6.40
2022-10-05T08:53:41.717Z,11.20
2022-10-05T08:55:10.332Z,8.30
2022-10-05T08:56:30.716Z,8.10
2022-10-05T08:57:41.155Z,10.30
2022-10-05T08:59:07.071Z,8.30
2022-10-05T09:00:31.930Z,7.70
2022-10-05T09:02:10.922Z,9.30
2022-10-05T09:03:25.053Z,6.50
2022-10-05T09:04:45.452Z,8.60
2022-10-05T09:06:19.934Z,8.10
2022-10-05T09:07:36.353Z,9.50
2022-10-05T09:08:56.570Z,7.30
2022-10-05T09:10:35.747Z,11.60
2022-10-05T09:11:43.167Z,7.60
2022-10-05T09:13:18.100Z,8.90
2022-10-05T09:14:56.421Z,8.10
2022-10-05T09:16:45.962Z,8.50
2022-10-05T09:18:09.478Z,8.30
2022-10-05T09:19:32.289Z,9.10
2022-10-05T09:20:53.211Z,9.80
2022-10-05T09:22:04.407Z,8.40
2022-10-05T09:23:39.408Z,8.90
2022-10-05T09:25:03.194Z,8.90
2022-10-05T09:26:11.726Z,7.50
2022-10-05T09:27:16.178Z,7.00
2022-10-05T09:28:48.988Z,6.80
2022-10-05T09:30:14.915Z,10.20
2022-10-05T09:32:00.467Z,7.50
2022-10-05T09:33:31.086Z,7.60
2022-10-05T09:36:04.889Z,5.30
2022-10-05T09:37:21.737Z,7.90
2022-10-05T09:39:04.625Z,10.80
2022-10-05T09:40:24.829Z,9.90
2022-10-05T09:41:35.261Z,8.80
2022-10-05T09:43:53.812Z,7.60
2022-10-05T09:45:23.563Z,10.30
2022-10-05T09:46:37.355Z,9.30
2022-10-05T09:47:50.800Z,9.10
2022-10-05T09:49:23.386Z,7.50
2022-10-05T09:50:43.822Z,8.20
2022-10-05T09:51:58.139Z,8.70
2022-10-05T09:53:10.142Z,9.40
2022-10-05T09:54:28.206Z,7.10
2022-10-05T09:55:30.467Z,7.50
2022-10-05T09:56:59.596Z,8.70
2022-10-05T09:58:14.072Z,8.50
2022-10-05T09:59:21.427Z,7.60
2022-10-05T10:00:40.127Z,8.00
2022-10-05T10:02:22.360Z,8.00
2022-10-05T10:03:53.426Z,8.90
2022-10-05T10:05:05.126Z,8.60
2022-10-05T10:06:12.461Z,7.90
2022-10-05T10:07:16.911Z,13.40
2022-10-05T10:08:30.670Z,8.00
2022-10-05T10:09:44.400Z,5.60
2022-10-05T10:11:01.634Z,7.50
2022-10-05T10:12:18.110Z,5.70
2022-10-05T10:14:02.047Z,6.20
2022-10-05T10:15:15.731Z,7.30
2022-10-05T10:16:39.152Z,8.60
2022-10-05T10:17:46.895Z,8.10
2022-10-05T10:19:09.998Z,9.00
2022-10-05T10:20:22.386Z,7.40
2022-10-05T10:22:01.549Z,7.40
2022-10-05T10:23:03.127Z,8.10
2022-10-05T10:24:57.192Z,7.50
2022-10-05T10:26:49.648Z,8.80
2022-10-05T10:28:18.740Z,9.10
2022-10-05T10:29:45.331Z,6.70
2022-10-05T10:31:22.812Z,8.70
2022-10-05T10:32:51.914Z,8.00
2022-10-05T10:34:15.663Z,8.20
2022-10-05T10:35:20.547Z,11.30
2022-10-05T10:36:34.316Z,8.50
2022-10-05T10:38:12.507Z,10.70
2022-10-05T10:39:44.703Z,8.90
2022-10-05T10:41:07.951Z,8.80
2022-10-05T10:42:38.782Z,10.20
2022-10-05T10:43:46.562Z,9.80
2022-10-05T10:44:48.287Z,9.80
2022-10-05T10:46:08.077Z,9.10
2022-10-05T10:47:27.930Z,12.50
2022-10-05T10:48:29.731Z,6.90
2022-10-05T10:49:57.443Z,7.70
2022-10-05T10:51:09.731Z,6.90
2022-10-05T10:52:48.486Z,5.90
2022-10-05T10:54:27.885Z,7.80
2022-10-05T10:55:33.452Z,7.20
2022-10-05T10:56:54.787Z,11.20
2022-10-05T10:58:16.444Z,6.20
2022-10-05T10:59:36.631Z,9.00
2022-10-05T11:01:06.023Z,8.80
2022-10-05T11:02:19.804Z,6.90
2022-10-05T11:03:33.391Z,8.20
2022-10-05T11:04:56.561Z,9.80
2022-10-05T11:06:42.438Z,10.90
2022-10-05T11:07:54.233Z,7.20
2022-10-05T11:09:40.407Z,9.30
2022-10-05T11:11:12.670Z,5.70
2022-10-05T11:12:34.547Z,8.60
2022-10-05T11:14:02.247Z,8.10
2022-10-05T11:15:24.674Z,9.50
2022-10-05T11:17:07.624Z,8.00
2022-10-05T11:18:27.664Z,7.70
2022-10-05T11:20:03.078Z,5.90
2022-10-05T11:21:31.103Z,6.30
2022-10-05T11:22:54.207Z,8.40
2022-10-05T11:24:18.541Z,6.60
2022-10-05T11:25:43.703Z,9.90
2022-10-05T11:27:19.794Z,7.90
2022-10-05T11:28:45.600Z,8.20
2022-10-05T11:30:01.243Z,7.20
2022-10-05T11:31:34.007Z,7.90
2022-10-05T11:33:01.422Z,7.80
2022-10-05T11:34:33.788Z,7.60
2022-10-05T11:35:53.365Z,8.00
2022-10-05T11:37:32.405Z,5.70
2022-10-05T11:39:19.953Z,10.20
2022-10-05T11:40:42.384Z,9.70
2022-10-05T11:42:06.521Z,8.10
2022-10-05T11:43:49.963Z,10.50
2022-10-05T11:44:54.290Z,7.50
2022-10-05T11:46:07.987Z,10.60
2022-10-05T11:47:33.242Z,7.00
2022-10-05T11:48:40.554Z,7.20
2022-10-05T11:49:42.177Z,7.00
2022-10-05T11:51:14.552Z,5.40
2022-10-05T11:52:39.776Z,7.70
2022-10-05T11:54:02.646Z,13.90
2022-10-05T11:55:27.252Z,8.10
2022-10-05T11:56:41.883Z,7.50
2022-10-05T11:57:52.340Z,6.50
2022-10-05T11:59:07.085Z,8.80
2022-10-05T12:00:15.371Z,7.70
2022-10-05T12:01:26.855Z,7.80
2022-10-05T12:02:34.505Z,7.00
2022-10-05T12:03:57.459Z,9.20
2022-10-05T12:05:22.183Z,7.80
2022-10-05T12:06:51.422Z,8.40
2022-10-05T12:08:14.742Z,7.10
2022-10-05T12:09:31.541Z,8.20
2022-10-05T12:10:48.162Z,8.10
2022-10-05T12:11:58.805Z,7.60
2022-10-05T12:13:03.459Z,8.70
2022-10-05T12:14:19.558Z,9.60
2022-10-05T12:15:44.109Z,7.90
2022-10-05T12:17:14.009Z,9.50
2022-10-05T12:18:30.538Z,9.40
2022-10-05T12:19:38.229Z,7.80
2022-10-05T12:20:45.645Z,9.70
2022-10-05T12:22:14.725Z,9.10
2022-10-05T12:23:34.090Z,7.80
2022-10-05T12:24:35.786Z,8.20
2022-10-05T12:25:47.729Z,5.50
2022-10-05T12:27:06.680Z,12.70
2022-10-05T12:28:17.461Z,6.80
2022-10-05T12:29:41.251Z,10.60
2022-10-05T12:31:18.075Z,12.00
2022-10-05T12:32:36.471Z,5.70
2022-10-05T12:34:08.399Z,8.10
2022-10-05T12:35:48.288Z,9.60
2022-10-05T12:38:16.404Z,7.90
2022-10-05T12:39:55.430Z,8.60
2022-10-05T12:41:36.258Z,6.70
2022-10-05T12:42:59.167Z,7.20
2022-10-05T12:44:15.927Z,4.40
2022-10-05T12:45:53.297Z,6.30
2022-10-05T12:47:30.008Z,7.00
2022-10-05T12:48:55.511Z,5.70
2022-10-05T12:50:32.596Z,9.20
2022-10-05T12:51:54.301Z,9.00
2022-10-05T12:53:21.181Z,7.40
2022-10-05T12:55:00.135Z,7.10
2022-10-05T12:56:41.956Z,9.60
2022-10-05T12:57:54.872Z,8.00
2022-10-05T12:59:08.421Z,7.60
2022-10-05T13:00:22.635Z,7.20
2022-10-05T13:01:42.665Z,11.20
2022-10-05T13:02:44.418Z,7.20
2022-10-05T13:04:18.393Z,9.00
2022-10-05T13:05:32.288Z,6.60
2022-10-05T13:06:51.553Z,7.80
2022-10-05T13:08:29.439Z,6.30
2022-10-05T13:09:41.720Z,9.40
2022-10-05T13:11:11.392Z,5.10
2022-10-05T13:12:44.080Z,6.80
2022-10-05T13:13:54.533Z,5.40
2022-10-05T13:15:03.795Z,6.60
2022-10-05T13:16:14.953Z,10.20
2022-10-05T13:17:28.930Z,6.40
2022-10-05T13:18:55.435Z,5.90
2022-10-05T13:20:04.779Z,9.80
2022-10-05T13:21:22.267Z,7.40
2022-10-05T13:22:45.854Z,8.10
2022-10-05T13:24:06.595Z,5.70
2022-10-05T13:25:17.595Z,7.20
2022-10-05T13:26:27.496Z,7.80
2022-10-05T13:27:34.827Z,10.20
2022-10-05T13:28:47.645Z,6.60
2022-10-05T13:30:18.169Z,7.20
2022-10-05T13:32:36.190Z,7.40
2022-10-05T13:34:07.329Z,6.30
2022-10-05T13:35:24.479Z,6.60
2022-10-05T13:36:46.180Z,8.30
2022-10-05T13:38:10.644Z,7.50
2022-10-05T13:39:27.963Z,10.00
2022-10-05T13:40:50.076Z,9.50
2022-10-05T13:42:17.128Z,7.50
2022-10-05T13:45:00.550Z,8.40
2022-10-05T13:46:10.226Z,8.10
2022-10-05T13:47:39.021Z,6.90
2022-10-05T13:48:56.398Z,6.20
2022-10-05T13:50:18.412Z,9.80
2022-10-05T13:51:28.745Z,5.70
2022-10-05T13:52:43.740Z,9.00
2022-10-05T13:54:11.405Z,6.50
2022-10-05T13:55:46.105Z,6.70
2022-10-05T13:56:55.134Z,8.40
2022-10-05T13:58:04.993Z,8.00
2022-10-05T13:59:42.714Z,7.10
2022-10-05T14:01:02.544Z,7.00
2022-10-05T14:02:16.834Z,6.80
2022-10-05T14:03:27.307Z,7.30
2022-10-05T14:04:43.480Z,7.10
2022-10-05T14:05:55.847Z,8.00
2022-10-05T14:07:21.263Z,7.30
2022-10-05T14:08:47.057Z,8.90
2022-10-05T14:09:51.757Z,7.60
2022-10-05T14:10:55.415Z,6.90
2022-10-05T14:12:02.994Z,7.40
2022-10-05T14:13:23.088Z,5.70
2022-10-05T14:14:27.693Z,6.90
2022-10-05T14:15:37.312Z,8.70
2022-10-05T14:16:51.815Z,6.10
2022-10-05T14:17:54.011Z,7.10
2022-10-05T14:19:04.803Z,5.60
2022-10-05T14:20:35.759Z,7.60
2022-10-05T14:21:53.356Z,9.80
2022-10-05T14:23:01.774Z,8.10
2022-10-05T14:24:44.620Z,10.60
2022-10-05T14:25:53.226Z,7.40
2022-10-05T14:26:58.859Z,6.70
2022-10-05T14:28:32.357Z,5.70
2022-10-05T14:29:37.413Z,8.80
2022-10-05T14:30:39.848Z,7.90
2022-10-05T14:31:58.709Z,7.40
2022-10-05T14:33:03.648Z,12.10
2022-10-05T14:34:26.948Z,7.60
2022-10-05T14:35:50.485Z,15.50
2022-10-05T14:36:59.415Z,8.00
2022-10-05T14:38:15.745Z,7.80
2022-10-05T14:39:24.957Z,7.40
2022-10-05T14:40:37.577Z,7.30
2022-10-05T14:41:48.238Z,9.70
2022-10-05T14:42:50.818Z,8.60
2022-10-05T14:44:02.081Z,10.60
2022-10-05T14:45:20.024Z,6.30
2022-10-05T14:46:27.815Z,7.60
2022-10-05T14:47:31.555Z,10.10
2022-10-05T14:48:44.746Z,5.40
2022-10-05T14:50:15.339Z,5.60
2022-10-05T14:51:31.408Z,7.50
2022-10-05T14:52:34.100Z,7.80
2022-10-05T14:53:40.381Z,6.60
2022-10-05T14:55:00.335Z,8.20
2022-10-05T14:56:31.730Z,4.70
2022-10-05T14:58:08.344Z,10.20
2022-10-05T14:59:42.793Z,6.30
2022-10-05T15:01:00.411Z,10.10
2022-10-05T15:02:24.409Z,9.40
2022-10-05T15:03:46.012Z,7.10
2022-10-05T15:05:16.464Z,6.50
2022-10-05T15:06:39.117Z,8.60
2022-10-05T15:07:45.187Z,9.00
2022-10-05T15:09:17.382Z,9.80
2022-10-05T15:10:31.851Z,9.40
2022-10-05T15:12:03.608Z,7.50
2022-10-05T15:13:15.128Z,7.80
2022-10-05T15:14:19.780Z,9.30
2022-10-05T15:15:41.690Z,6.80
2022-10-05T15:16:45.000Z,5.60
2022-10-05T15:17:54.351Z,7.70
2022-10-05T15:19:24.070Z,10.20
2022-10-05T15:20:38.571Z,7.90
2022-10-05T15:21:59.486Z,7.10
2022-10-05T15:23:24.393Z,10.30
2022-10-05T15:24:49.358Z,9.90
2022-10-05T15:26:07.082Z,7.50
2022-10-05T15:27:17.263Z,7.20
2022-10-05T15:28:39.879Z,8.10
2022-10-05T15:29:54.981Z,6.90
2022-10-05T15:31:03.881Z,6.70
2022-10-05T15:32:25.259Z,11.00
2022-10-05T15:33:35.645Z,7.90
2022-10-05T15:36:22.494Z,9.00
2022-10-05T15:37:31.307Z,8.60
2022-10-05T15:38:43.785Z,7.70
2022-10-05T15:39:50.148Z,6.70
2022-10-05T15:41:18.443Z,6.50
2022-10-05T15:42:34.072Z,7.90
2022-10-05T15:43:57.882Z,9.50
2022-10-05T15:45:25.241Z,11.30
2022-10-05T15:46:49.880Z,9.90
2022-10-05T15:47:59.361Z,9.20
2022-10-05T15:49:42.863Z,12.70
2022-10-05T15:51:16.599Z,10.90
2022-10-05T15:52:40.031Z,12.00
2022-10-05T15:54:35.556Z,11.40
2022-10-05T15:56:00.963Z,12.60
2022-10-05T15:57:41.031Z,11.30
2022-10-05T15:58:48.144Z,11.90
2022-10-05T16:00:04.083Z,13.50
2022-10-05T16:01:10.869Z,10.40
2022-10-05T16:02:25.521Z,13.20
2022-10-05T16:03:43.046Z,14.80
2022-10-05T16:04:51.215Z,11.10
2022-10-05T16:06:33.044Z,11.40
2022-10-05T16:08:07.161Z,9.70
2022-10-05T16:09:45.557Z,10.50
2022-10-05T16:10:47.304Z,10.50
2022-10-05T16:12:19.874Z,10.60
2022-10-05T16:13:40.951Z,8.90
2022-10-05T16:15:15.551Z,10.90
2022-10-05T16:16:28.340Z,11.10
2022-10-05T16:17:49.280Z,10.70
2022-10-05T16:19:01.511Z,14.20
2022-10-05T16:20:26.143Z,11.80
2022-10-05T16:21:53.435Z,10.70
2022-10-05T16:23:25.538Z,10.10
2022-10-05T16:25:04.349Z,11.60
2022-10-05T16:26:07.193Z,10.70
2022-10-05T16:27:22.048Z,11.10
2022-10-05T16:29:17.302Z,12.00
2022-10-05T16:30:21.916Z,13.10
2022-10-05T16:31:48.446Z,11.10
2022-10-05T16:32:57.307Z,12.60
2022-10-05T16:34:08.725Z,12.30
2022-10-05T16:35:16.195Z,12.30
2022-10-05T16:36:43.928Z,10.50
2022-10-05T16:37:48.488Z,12.60
2022-10-05T16:39:00.721Z,11.20
2022-10-05T16:40:19.888Z,10.90
2022-10-05T16:41:53.697Z,11.90
2022-10-05T16:43:16.765Z,12.90
2022-10-05T16:44:46.100Z,12.50
2022-10-05T16:45:56.401Z,13.50
2022-10-05T16:47:27.427Z,15.00
2022-10-05T16:48:54.155Z,13.20
2022-10-05T16:50:20.886Z,13.50
2022-10-05T16:51:43.968Z,12.60
2022-10-05T16:52:54.338Z,10.50
2022-10-05T16:54:02.564Z,13.20
2022-10-05T16:55:13.355Z,12.20
2022-10-05T16:56:20.230Z,16.90
2022-10-05T16:57:34.503Z,13.20
2022-10-05T16:58:46.887Z,12.20
2022-10-05T16:59:54.397Z,16.20
2022-10-05T17:01:28.347Z,14.70
2022-10-05T17:02:40.651Z,15.30
2022-10-05T17:03:59.472Z,14.30
2022-10-05T17:05:06.973Z,11.90
2022-10-05T17:06:26.960Z,12.50
2022-10-05T17:07:34.656Z,12.50
2022-10-05T17:09:05.616Z,14.70
2022-10-05T17:10:19.525Z,15.00
2022-10-05T17:11:34.420Z,15.90
2022-10-05T17:13:00.115Z,17.50
2022-10-05T17:14:29.347Z,16.70
2022-10-05T17:15:55.232Z,16.30
2022-10-05T17:17:15.130Z,12.40
2022-10-05T17:18:26.873Z,14.10
2022-10-05T17:19:34.532Z,17.30
2022-10-05T17:20:54.283Z,15.00
2022-10-05T17:21:59.926Z,15.40
2022-10-05T17:23:22.191Z,14.40
2022-10-05T17:24:46.001Z,15.50
2022-10-05T17:25:55.150Z,14.80
2022-10-05T17:27:34.558Z,16.00
2022-10-05T17:28:56.762Z,12.90
2022-10-05T17:30:30.868Z,16.00
2022-10-05T17:31:59.268Z,16.30
2022-10-05T17:33:18.262Z,18.10
2022-10-05T17:34:19.869Z,15.20
2022-10-05T17:35:56.260Z,18.10
2022-10-05T17:37:15.908Z,17.20
2022-10-05T17:38:21.075Z,15.40
2022-10-05T17:39:48.082Z,15.90
2022-10-05T17:41:11.904Z,16.80
2022-10-05T17:42:42.956Z,14.70